• Join FlightAware (Why Join?)
  • Login
  • US Flag 
11:40PM EDT


 

Airport Tracker/Info


-or-


 

Live Flight TrackerFlight Track Log ✈ SWA2353 ✈ 07-May-2013 ✈ KPHL - KMDW

Flight Track Log - Related Links

Times and Time Zones

All times are in EDT time to prevent confusion due to time zone crossing. See the SWA2353 flight status page for this flight to view local times or setup timezone preferences in your user account.

Time Position Orientation Groundspeed Altitude Reporting Facility
EDT Latitude Longitude Course Direction KTS MPH feet Rate Location/Type
06:35PM 39.8833 -75.2167 67° East 145 167 900  Level Philadelphia TRACON
06:36PM 39.9000 -75.1667 67° East 195 224 2,500 2,460 Climbing Philadelphia TRACON
06:37PM 39.9333 -75.1167 49° Northeast 211 243 5,600 2,880 Climbing Philadelphia TRACON
06:38PM 39.9833 -75.1500 333° Northwest 307 353 8,300 2,040 Climbing Philadelphia TRACON
06:39PM 40.0333 -75.2500 303° West 330 380 10,000 1,560 Climbing Philadelphia TRACON
06:41PM 40.1522 -75.4472 308° West 375 432 13,000 1,500 Climbing New York Center
06:42PM 40.2169 -75.5494 310° West 370 426 14,400 1,980 Climbing New York Center
06:43PM 40.2778 -75.6408 311° West 370 426 17,000 1,440 Climbing New York Center
06:44PM 40.3442 -75.7436 310° West 370 426 17,300 960 Climbing New York Center
06:45PM 40.4186 -75.8581 311° West 370 426 19,000 1,380 Climbing New York Center
06:46PM 40.4544 -75.9889 290° West 376 433 20,100 1,860 Climbing New York Center
06:47PM 40.4778 -76.1244 283° West 376 433 22,700 2,400 Climbing New York Center
06:48PM 40.4981 -76.2706 280° West 388 447 24,900 1,860 Climbing New York Center
06:49PM 40.5242 -76.4256 283° West 407 468 26,600 1,740 Climbing New York Center
06:50PM 40.5475 -76.5858 281° West 431 496 28,400 1,740 Climbing New York Center
06:51PM 40.5897 -76.7453 289° West 446 513 30,100 1,740 Climbing New York Center
06:52PM 40.6333 -76.9078 290° West 466 536 31,900 1,920 Climbing New York Center
06:53PM 40.6581 -77.0742 281° West 466 536 34,000 1,020 Climbing New York Center
06:54PM 40.6806 -77.2378 280° West 466 536 34,000  Level New York Center
06:55PM 40.7028 -77.3986 280° West 455 524 34,000  Level New York Center
06:56PM 40.7247 -77.5653 280° West 455 524 34,000 420 Level New York Center
06:59PM 40.7722 -77.9264 280° West 453 521 35,400 600 Climbing Cleveland Center
07:00PM 40.7925 -78.0900 279° West 453 521 36,000 420 Climbing Cleveland Center
07:01PM 40.8128 -78.2567 279° West 458 527 36,300 900 Climbing Cleveland Center
07:02PM 40.8347 -78.4261 280° West 467 537 37,800 1,200 Climbing Cleveland Center
07:03PM 40.8611 -78.6119 281° West 467 537 38,700 1,080 Climbing Cleveland Center
07:04PM 40.8828 -78.7817 280° West 467 537 40,000 600 Climbing Cleveland Center
07:05PM 40.9019 -78.9514 279° West 467 537 40,000  Level Cleveland Center
07:06PM 40.9228 -79.1156 280° West 462 532 40,000  Level Cleveland Center
07:07PM 40.9414 -79.2775 279° West 462 532 40,000  Level Cleveland Center
07:08PM 40.9600 -79.4419 279° West 462 532 40,000  Level Cleveland Center
07:09PM 40.9803 -79.6067 279° West 462 532 40,000  Level Cleveland Center
07:10PM 40.9983 -79.7717 278° West 462 532 40,000  Level Cleveland Center
07:11PM 41.0158 -79.9336 278° West 462 532 40,000  Level Cleveland Center
07:12PM 41.0333 -80.0958 278° West 462 532 40,000  Level Cleveland Center
07:13PM 41.0528 -80.2636 279° West 462 532 40,000  Level Cleveland Center
07:14PM 41.0697 -80.4261 278° West 462 532 40,000  Level Cleveland Center
07:15PM 41.0867 -80.5914 278° West 462 532 40,000  Level Cleveland Center
07:16PM 41.1053 -80.7594 278° West 462 532 40,000  Level Cleveland Center
07:17PM 41.1194 -80.9250 277° West 462 532 40,000  Level Cleveland Center
07:18PM 41.1353 -81.0931 277° West 462 532 40,000  Level Cleveland Center
07:19PM 41.1511 -81.2586 277° West 462 532 40,000  Level Cleveland Center
07:20PM 41.1711 -81.4217 279° West 462 532 40,000  Level Cleveland Center
07:21PM 41.1883 -81.5875 278° West 462 532 40,000  Level Cleveland Center
07:22PM 41.2036 -81.7533 277° West 462 532 40,000  Level Cleveland Center
07:23PM 41.2206 -81.9219 278° West 462 532 40,000  Level Cleveland Center
07:24PM 41.2331 -82.0853 276° West 462 532 40,000  Level Cleveland Center
07:25PM 41.2456 -82.2400 276° West 469 540 40,000  Level Cleveland Center
07:26PM 41.2594 -82.4061 276° West 464 534 40,000  Level Cleveland Center
07:27PM 41.2753 -82.5917 277° West 464 534 40,000  Level Cleveland Center
07:28PM 41.2889 -82.7553 276° West 464 534 40,000  Level Cleveland Center
07:29PM 41.3044 -82.9244 277° West 464 534 40,000  Level Cleveland Center
07:30PM 41.3194 -83.0908 277° West 464 534 40,000 -60 Level Cleveland Center
07:31PM 41.3286 -83.2406 275° West 464 534 39,900 -600 Descending Cleveland Center
07:32PM 41.3433 -83.4072 277° West 464 534 38,900 -1,020 Descending Cleveland Center
07:33PM 41.3558 -83.5736 276° West 464 534 37,900 -960 Descending Cleveland Center
07:34PM 41.3700 -83.7458 276° West 464 534 37,000 -900 Descending Cleveland Center
07:35PM 41.3819 -83.9125 276° West 464 534 36,100 -960 Descending Cleveland Center
07:36PM 41.3956 -84.0878 276° West 464 534 35,100 -900 Descending Cleveland Center
07:37PM 41.3814 -84.2697 264° West 454 522 34,300 -1,080 Descending Cleveland Center
07:38PM 41.3464 -84.4331 254° West 453 521 32,900 -1,200 Descending Chicago Center
07:39PM 41.3272 -84.5939 261° West 445 512 31,900 -1,320 Descending Chicago Center
07:40PM 41.3278 -84.7544 270° West 435 501 30,200 -960 Descending Chicago Center
07:41PM 41.3514 -84.9081 282° West 424 488 30,000 -300 Descending Chicago Center
07:42PM 41.3750 -85.0592 282° West 419 482 29,600 -1,140 Descending Chicago Center
07:43PM 41.3983 -85.2081 282° West 411 473 27,700 -1,920 Descending Chicago Center
07:44PM 41.4208 -85.3522 282° West 399 459 25,700 -1,860 Descending Chicago Center
07:45PM 41.4467 -85.5192 282° West 381 438 23,900 -1,320 Descending Chicago Center
07:46PM 41.4603 -85.6575 278° West 372 428 23,000 -1,320 Descending Chicago Center
07:47PM 41.4719 -85.7942 277° West 371 427 21,200 -1,980 Descending Chicago Center
07:48PM 41.4833 -85.9319 276° West 373 429 19,000 -2,160 Descending Chicago Center
07:49PM 41.4953 -86.0650 277° West 367 422 16,800 -2,280 Descending Chicago Center
07:50PM 41.5056 -86.1975 276° West 361 415 14,400 -2,400 Descending Chicago Center
07:51PM 41.5097 -86.3311 272° West 361 415 11,900 -2,160 Descending Chicago Center
07:52PM 41.5108 -86.4869 271° West 353 406 10,000 -960 Descending Chicago Center
07:53PM 41.5125 -86.6128 271° West 342 394 10,000  Level Chicago Center
07:54PM 41.5131 -86.7331 270° West 335 386 10,000 -60 Level Chicago Center
07:55PM 41.5147 -86.8536 271° West 328 377 9,900 -900 Descending Chicago Center
07:56PM 41.5158 -86.9800 271° West 291 335 8,200 -1,560 Descending Chicago Center
07:57PM 41.5167 -87.0844 271° West 284 327 6,700 -1,080 Descending Chicago Center
07:58PM 41.5150 -87.1878 269° West 281 323 6,000 -360 Descending Chicago Center
07:59PM 41.5219 -87.2869 275° West 273 314 6,000 -780 Level Chicago Center
08:00PM 41.5442 -87.3858 287° West 277 319 4,500 -1,020 Descending Chicago Center
08:02PM 41.5694 -87.5011 286° West 275 316 4,000 -300 Descending Chicago Center
08:03PM 41.5892 -87.5961 286° West 272 313 4,000 -540 Level Chicago Center
08:04PM 41.6094 -87.6906 286° West 269 310 2,900 -780 Descending Chicago Center
08:05PM 41.6286 -87.7847 285° West 268 308 2,500 -300 Descending Chicago Center
08:06PM 41.6844 -87.8169 337° Northwest 238 274 2,400 -360 Descending Chicago Center
08:07PM 41.7333 -87.8167 360° North 141 162 1,800 -600 Descending Chicago TRACON
08:08PM 41.7500 -87.7833 56° Northeast 127 146 1,300 -600 Descending Chicago TRACON